Time;durP1;ratioP1;P1;durP2;ratioP2;P2;SDS_P1;SDS_P2;PMS_P1;PMS_P2;Temp;Humidity;BMP_temperature;BMP_pressure;BME280_temperature;BME280_humidity;BME280_pressure;Samples;Min_cycle;Max_cycle;Signal;HPM_P1;HPM_P2
2021/08/28 00:00:36;;;;;;;4.87;4.40;;;12.90;99.90;;;;;;5000461;28;20176;-79
2021/08/28 00:03:02;;;;;;;5.93;4.27;;;12.90;99.90;;;;;;5001625;28;20590;-79
2021/08/28 00:05:28;;;;;;;5.50;4.40;;;12.90;99.90;;;;;;5001073;28;20195;-78
2021/08/28 00:07:57;;;;;;;5.97;4.90;;;12.90;99.90;;;;;;5000400;28;20172;-79
2021/08/28 00:10:23;;;;;;;4.57;4.27;;;12.90;99.90;;;;;;4999223;28;20203;-78
2021/08/28 00:12:49;;;;;;;5.07;4.63;;;12.90;99.90;;;;;;5000340;28;20675;-79
2021/08/28 00:15:15;;;;;;;4.70;4.30;;;12.90;99.90;;;;;;5000765;28;20164;-78
2021/08/28 00:17:41;;;;;;;5.33;4.83;;;12.90;99.90;;;;;;4998269;28;20230;-79
2021/08/28 00:20:10;;;;;;;5.23;4.73;;;12.90;99.90;;;;;;5001104;28;20231;-79
2021/08/28 00:22:36;;;;;;;8.17;4.70;;;12.90;99.90;;;;;;5000943;28;20271;-78
2021/08/28 00:25:02;;;;;;;6.27;5.30;;;12.90;99.90;;;;;;5000712;28;20175;-78
2021/08/28 00:27:28;;;;;;;4.50;4.20;;;12.90;99.90;;;;;;5000461;28;20175;-78
2021/08/28 00:29:53;;;;;;;5.10;4.70;;;13.00;99.90;;;;;;5000176;28;20199;-78
2021/08/28 00:32:19;;;;;;;5.07;4.67;;;13.00;99.90;;;;;;5000467;28;20195;-79
2021/08/28 00:34:45;;;;;;;6.17;4.13;;;13.00;99.90;;;;;;5000840;28;20163;-79
2021/08/28 00:37:10;;;;;;;4.63;4.23;;;13.10;99.90;;;;;;5000690;28;20172;-78
2021/08/28 00:39:36;;;;;;;5.23;4.73;;;13.10;99.90;;;;;;5000734;28;20178;-78
2021/08/28 00:42:02;;;;;;;5.10;4.60;;;13.10;99.90;;;;;;5009195;23;20706;-79
2021/08/28 00:44:27;;;;;;;5.03;4.23;;;13.10;99.90;;;;;;4996937;28;20204;-79
2021/08/28 00:46:54;;;;;;;6.23;5.03;;;13.10;99.90;;;;;;4997171;28;20194;-78
2021/08/28 00:49:20;;;;;;;4.40;4.10;;;13.00;99.90;;;;;;4996170;28;20606;-78
2021/08/28 00:51:46;;;;;;;6.73;4.37;;;12.90;99.90;;;;;;4997321;28;20199;-78
2021/08/28 00:54:12;;;;;;;6.43;4.20;;;13.00;99.90;;;;;;4995123;28;20176;-78
2021/08/28 00:56:39;;;;;;;5.97;4.13;;;12.90;99.90;;;;;;4996420;28;20317;-78
2021/08/28 00:59:05;;;;;;;5.30;4.20;;;12.90;99.90;;;;;;4997101;28;20573;-79
2021/08/28 01:01:35;;;;;;;4.40;4.00;;;12.90;99.90;;;;;;4996855;28;20191;-78
2021/08/28 01:04:02;;;;;;;4.83;4.07;;;12.90;99.90;;;;;;4997119;28;20184;-78
2021/08/28 01:06:51;;;;;;;4.60;4.23;;;13.00;99.90;;;;;;4995007;28;20168;-78
2021/08/28 01:09:25;;;;;;;4.67;4.37;;;13.00;99.90;;;;;;4997057;28;20184;-78
2021/08/28 01:11:59;;;;;;;4.63;4.23;;;13.00;99.90;;;;;;4996288;28;20220;-78
2021/08/28 01:14:30;;;;;;;5.20;4.33;;;13.00;99.90;;;;;;4995187;28;20242;-78
2021/08/28 01:17:17;;;;;;;5.10;4.70;;;13.00;99.90;;;;;;4996900;28;20176;-78
2021/08/28 01:20:06;;;;;;;4.83;4.43;;;13.00;99.90;;;;;;4996930;28;20189;-78
2021/08/28 01:22:34;;;;;;;4.20;3.90;;;13.00;99.90;;;;;;4993256;28;20214;-78
2021/08/28 01:25:03;;;;;;;4.67;4.27;;;13.00;99.90;;;;;;4995846;28;20266;-78
2021/08/28 01:27:52;;;;;;;4.60;4.20;;;13.00;99.90;;;;;;4997671;28;20179;-80
2021/08/28 01:30:19;;;;;;;7.60;4.40;;;13.00;99.90;;;;;;4995521;28;20171;-78
2021/08/28 01:32:45;;;;;;;4.80;4.40;;;12.90;99.90;;;;;;4994686;28;20203;-78
2021/08/28 01:35:12;;;;;;;5.60;4.40;;;12.90;99.90;;;;;;4994406;28;20214;-78
2021/08/28 01:37:42;;;;;;;4.33;3.93;;;12.90;99.90;;;;;;4995675;28;20195;-78
2021/08/28 01:40:10;;;;;;;4.80;4.40;;;12.80;99.90;;;;;;4995751;28;20219;-78
2021/08/28 01:42:37;;;;;;;5.67;4.40;;;12.80;99.90;;;;;;4995536;28;20227;-78
2021/08/28 01:45:04;;;;;;;4.57;4.10;;;12.80;99.90;;;;;;4995830;28;20172;-78
2021/08/28 01:47:30;;;;;;;4.97;4.33;;;12.70;99.90;;;;;;4994584;28;20176;-80
2021/08/28 01:49:57;;;;;;;4.40;4.00;;;12.80;99.90;;;;;;4996127;28;20635;-78
2021/08/28 01:52:23;;;;;;;4.37;3.97;;;12.70;99.90;;;;;;4995016;28;20699;-79
2021/08/28 01:54:52;;;;;;;4.70;4.10;;;12.70;99.90;;;;;;4995775;28;20168;-78
2021/08/28 01:57:19;;;;;;;7.70;4.70;;;12.70;99.90;;;;;;4995470;28;20624;-78
2021/08/28 01:59:45;;;;;;;4.33;3.97;;;12.70;99.90;;;;;;4995411;28;20168;-78
2021/08/28 02:02:10;;;;;;;4.90;4.10;;;12.70;99.90;;;;;;4993959;28;20191;-78
2021/08/28 02:04:37;;;;;;;4.43;4.03;;;12.60;99.90;;;;;;4995394;28;20196;-78
2021/08/28 02:07:31;;;;;;;5.33;4.93;;;12.60;99.90;;;;;;4995238;28;20175;-78
2021/08/28 02:10:06;;;;;;;5.53;4.63;;;12.60;99.90;;;;;;4994097;28;20179;-78
2021/08/28 02:12:39;;;;;;;4.13;3.73;;;12.60;99.90;;;;;;4995644;28;20550;-80
2021/08/28 02:15:07;;;;;;;4.43;4.13;;;12.60;99.90;;;;;;4994611;28;20705;-78
2021/08/28 02:17:55;;;;;;;4.87;4.37;;;12.70;99.90;;;;;;4995161;28;20176;-78
2021/08/28 02:20:26;;;;;;;4.90;4.50;;;12.60;99.90;;;;;;4994867;28;20219;-78
2021/08/28 02:22:56;;;;;;;4.73;4.33;;;12.70;99.90;;;;;;4994586;28;20574;-78
2021/08/28 02:25:33;;;;;;;4.97;4.10;;;12.70;99.90;;;;;;4995982;28;20182;-78
2021/08/28 02:28:05;;;;;;;4.50;4.10;;;12.80;99.90;;;;;;4995169;28;20246;-78
2021/08/28 02:30:32;;;;;;;4.50;4.10;;;12.80;99.90;;;;;;4993809;28;20279;-79
2021/08/28 02:33:00;;;;;;;5.00;4.03;;;12.80;99.90;;;;;;4995115;28;20221;-78
2021/08/28 02:35:28;;;;;;;4.53;4.13;;;12.90;99.90;;;;;;4994954;28;20270;-78
2021/08/28 02:37:57;;;;;;;4.70;4.27;;;12.90;99.90;;;;;;4995336;28;20632;-80
2021/08/28 02:40:24;;;;;;;5.50;4.37;;;12.90;99.90;;;;;;4995940;28;20665;-78
2021/08/28 02:42:51;;;;;;;6.57;4.43;;;13.00;99.90;;;;;;4997390;28;20226;-78
2021/08/28 02:45:20;;;;;;;5.00;4.50;;;12.80;99.90;;;;;;4998210;28;20179;-78
2021/08/28 02:47:48;;;;;;;5.10;4.60;;;12.90;99.90;;;;;;4997294;28;20183;-78
2021/08/28 02:50:15;;;;;;;5.47;4.73;;;12.90;99.90;;;;;;4998758;28;20183;-78
2021/08/28 02:52:43;;;;;;;5.43;4.03;;;12.90;99.90;;;;;;4997798;28;20203;-79
2021/08/28 02:55:11;;;;;;;6.50;4.20;;;12.90;99.90;;;;;;4999357;28;20168;-78
2021/08/28 02:57:39;;;;;;;4.67;4.27;;;12.90;99.90;;;;;;4998947;28;20172;-78
2021/08/28 03:00:06;;;;;;;4.73;4.33;;;12.90;99.90;;;;;;4998504;28;20179;-80
2021/08/28 03:02:33;;;;;;;6.27;4.27;;;13.00;99.90;;;;;;4999305;28;20215;-78
2021/08/28 03:04:59;;;;;;;4.27;3.87;;;13.00;99.90;;;;;;4997363;28;20290;-79
2021/08/28 03:07:25;;;;;;;4.67;4.17;;;13.00;99.90;;;;;;4998105;28;20176;-78
2021/08/28 03:09:53;;;;;;;4.73;4.20;;;13.00;99.90;;;;;;4998216;28;20257;-78
2021/08/28 03:12:19;;;;;;;6.57;4.10;;;13.00;99.90;;;;;;4998095;28;20293;-78
2021/08/28 03:14:45;;;;;;;4.17;3.63;;;12.90;99.90;;;;;;4998091;28;20175;-78
2021/08/28 03:17:13;;;;;;;4.20;3.90;;;12.80;99.90;;;;;;4998779;28;20263;-78
2021/08/28 03:19:41;;;;;;;4.17;3.57;;;12.80;99.90;;;;;;4997556;28;20608;-78
2021/08/28 03:22:11;;;;;;;5.43;3.73;;;12.70;99.90;;;;;;4998233;28;20688;-78
2021/08/28 03:24:40;;;;;;;4.30;3.90;;;12.70;99.90;;;;;;4997844;28;20211;-78
2021/08/28 03:27:07;;;;;;;5.33;4.27;;;12.70;99.90;;;;;;4996838;28;20184;-78
2021/08/28 03:29:35;;;;;;;4.27;3.90;;;12.70;99.90;;;;;;4997799;28;20226;-78
2021/08/28 03:32:02;;;;;;;4.50;4.20;;;12.70;99.90;;;;;;4997489;28;20192;-78
2021/08/28 03:34:28;;;;;;;5.30;4.40;;;12.80;99.90;;;;;;4996841;28;20180;-78
2021/08/28 03:36:55;;;;;;;5.03;4.53;;;12.80;99.90;;;;;;4996513;28;20180;-78
2021/08/28 03:39:21;;;;;;;5.23;4.30;;;12.80;99.90;;;;;;4998325;28;20176;-78
2021/08/28 03:41:47;;;;;;;4.83;4.40;;;12.80;99.90;;;;;;4997368;28;20293;-78
2021/08/28 03:44:17;;;;;;;4.73;4.33;;;12.70;99.90;;;;;;4997327;28;20246;-78
2021/08/28 03:46:45;;;;;;;4.47;4.07;;;12.70;99.90;;;;;;4996883;28;20655;-78
2021/08/28 03:49:11;;;;;;;4.83;4.37;;;12.80;99.90;;;;;;4998109;28;20254;-78
2021/08/28 03:51:37;;;;;;;4.73;4.30;;;12.80;99.90;;;;;;4995401;28;20663;-79
2021/08/28 03:54:02;;;;;;;4.70;4.30;;;12.80;99.90;;;;;;4997759;28;20214;-78
2021/08/28 03:56:28;;;;;;;5.67;4.47;;;12.90;99.90;;;;;;4995902;28;20190;-78
2021/08/28 03:58:54;;;;;;;4.63;4.23;;;12.90;99.90;;;;;;4997304;28;20183;-78
2021/08/28 04:01:20;;;;;;;5.50;4.80;;;12.90;99.90;;;;;;4997687;28;20167;-78
2021/08/28 04:03:46;;;;;;;4.70;4.20;;;12.80;99.90;;;;;;4998026;28;20214;-78
2021/08/28 04:06:11;;;;;;;4.03;3.73;;;12.80;99.90;;;;;;4996552;28;20582;-78
2021/08/28 04:08:37;;;;;;;4.20;3.80;;;12.80;99.90;;;;;;4997318;28;20207;-78
2021/08/28 04:11:03;;;;;;;6.47;4.33;;;12.80;99.90;;;;;;4995688;28;20186;-77
2021/08/28 04:13:28;;;;;;;4.93;4.43;;;12.80;99.90;;;;;;4997247;28;20183;-78
2021/08/28 04:15:54;;;;;;;4.63;4.23;;;12.80;99.90;;;;;;4997072;28;20184;-78
2021/08/28 04:18:20;;;;;;;4.37;4.03;;;12.70;99.90;;;;;;4995749;28;20186;-78
2021/08/28 04:20:46;;;;;;;4.17;3.87;;;12.80;99.90;;;;;;4997048;28;20184;-78
2021/08/28 04:23:12;;;;;;;5.43;3.90;;;12.90;99.90;;;;;;4995668;28;20290;-78
2021/08/28 04:25:38;;;;;;;5.17;4.37;;;12.90;99.90;;;;;;4997493;28;20187;-78
2021/08/28 04:28:04;;;;;;;5.03;4.10;;;12.90;99.90;;;;;;4995672;28;20179;-78
2021/08/28 04:30:30;;;;;;;4.63;4.23;;;12.90;99.90;;;;;;4996287;28;20210;-79
2021/08/28 04:32:56;;;;;;;6.13;4.03;;;13.00;99.90;;;;;;4996879;28;20238;-78
2021/08/28 04:35:22;;;;;;;5.67;3.77;;;13.00;99.90;;;;;;4995553;28;20661;-78
2021/08/28 04:37:47;;;;;;;3.70;3.40;;;12.90;99.90;;;;;;4995445;28;20648;-78
2021/08/28 04:40:13;;;;;;;4.37;3.97;;;13.00;99.90;;;;;;4995096;28;20271;-78
2021/08/28 04:42:39;;;;;;;5.30;3.87;;;13.00;99.90;;;;;;4995215;28;20211;-78
2021/08/28 04:45:08;;;;;;;5.23;3.90;;;13.00;99.90;;;;;;4995307;28;20240;-78
2021/08/28 04:47:34;;;;;;;4.57;4.17;;;13.10;99.90;;;;;;4996494;28;20543;-78
2021/08/28 04:49:59;;;;;;;4.13;3.73;;;13.10;99.90;;;;;;4996909;28;20175;-79
2021/08/28 04:52:25;;;;;;;5.00;3.57;;;13.10;99.90;;;;;;4994872;28;20207;-78
2021/08/28 04:54:50;;;;;;;3.97;3.63;;;13.10;99.90;;;;;;4995358;28;20661;-78
2021/08/28 04:57:16;;;;;;;5.30;3.80;;;13.10;99.90;;;;;;4995244;28;20180;-78
2021/08/28 04:59:42;;;;;;;5.27;3.70;;;13.10;99.90;;;;;;4995505;28;20234;-78
2021/08/28 05:02:07;;;;;;;4.23;3.80;;;13.00;99.90;;;;;;4996292;28;20199;-77
2021/08/28 05:04:33;;;;;;;5.43;3.57;;;12.90;99.90;;;;;;4994615;28;20214;-78
2021/08/28 05:06:59;;;;;;;4.43;3.77;;;12.90;99.90;;;;;;4996485;28;20167;-78
2021/08/28 05:09:25;;;;;;;4.33;3.90;;;13.00;99.90;;;;;;4996195;28;20183;-81
2021/08/28 05:11:51;;;;;;;3.80;3.50;;;13.00;99.90;;;;;;4997210;28;20191;-78
2021/08/28 05:14:16;;;;;;;5.40;4.20;;;13.10;99.90;;;;;;4995026;28;20180;-78
2021/08/28 05:16:42;;;;;;;4.67;3.87;;;13.10;99.90;;;;;;4996112;28;20214;-78
2021/08/28 05:19:08;;;;;;;3.53;3.23;;;13.00;99.90;;;;;;4994729;28;20183;-78
2021/08/28 05:21:33;;;;;;;5.30;3.73;;;13.00;99.90;;;;;;4997481;28;20218;-79
2021/08/28 05:23:59;;;;;;;4.03;3.73;;;13.10;99.90;;;;;;4997673;28;20203;-79
2021/08/28 05:26:25;;;;;;;4.73;3.97;;;13.10;99.90;;;;;;4997691;28;20172;-78
2021/08/28 05:28:51;;;;;;;4.03;3.70;;;13.10;99.90;;;;;;4997707;28;20182;-79
2021/08/28 05:31:17;;;;;;;3.80;3.40;;;13.00;99.90;;;;;;4997704;28;20168;-78
2021/08/28 05:33:42;;;;;;;5.80;3.67;;;13.00;99.90;;;;;;4997662;28;20266;-79
2021/08/28 05:36:08;;;;;;;7.10;3.93;;;13.00;99.90;;;;;;4998527;28;20232;-79
2021/08/28 05:38:33;;;;;;;5.13;3.60;;;12.90;99.90;;;;;;4995649;28;20183;-79
2021/08/28 05:41:00;;;;;;;4.50;3.37;;;13.00;99.90;;;;;;4995851;28;20184;-79
2021/08/28 05:43:25;;;;;;;5.57;3.80;;;13.10;99.90;;;;;;4997250;28;20203;-79
2021/08/28 05:45:51;;;;;;;4.70;3.70;;;13.10;99.90;;;;;;4998392;28;20182;-79
2021/08/28 05:48:17;;;;;;;4.30;3.93;;;13.20;99.90;;;;;;4997261;28;20172;-79
2021/08/28 05:50:42;;;;;;;4.67;4.00;;;13.20;99.90;;;;;;4996387;28;20670;-79
2021/08/28 05:53:08;;;;;;;4.43;3.83;;;13.20;99.90;;;;;;4997138;28;20199;-79
2021/08/28 05:55:34;;;;;;;4.10;3.80;;;13.20;99.90;;;;;;4997834;28;20251;-79
2021/08/28 05:57:59;;;;;;;4.53;4.13;;;13.10;99.90;;;;;;4996109;28;20554;-79
2021/08/28 06:00:25;;;;;;;6.50;4.17;;;13.10;99.90;;;;;;4996330;28;20262;-79
2021/08/28 06:02:50;;;;;;;4.63;4.23;;;13.20;99.90;;;;;;4998153;28;20220;-79
2021/08/28 06:05:16;;;;;;;6.10;4.67;;;13.20;99.90;;;;;;4995673;28;20218;-79
2021/08/28 06:07:42;;;;;;;4.47;3.77;;;13.30;99.90;;;;;;4996684;28;20179;-79
2021/08/28 06:10:08;;;;;;;6.20;5.30;;;13.30;99.90;;;;;;4996971;28;20172;-79
2021/08/28 06:12:36;;;;;;;4.47;3.67;;;13.30;99.90;;;;;;4997969;28;20211;-79
2021/08/28 06:15:05;;;;;;;4.37;3.73;;;13.30;99.90;;;;;;4997081;28;20230;-79
2021/08/28 06:17:31;;;;;;;4.03;3.50;;;13.30;99.90;;;;;;5003009;28;20183;-79
2021/08/28 06:19:56;;;;;;;3.90;3.60;;;13.30;99.90;;;;;;5001556;28;20182;-79
2021/08/28 06:22:22;;;;;;;4.77;4.30;;;13.20;99.90;;;;;;5000574;28;20200;-79
2021/08/28 06:24:47;;;;;;;4.93;3.90;;;13.20;99.90;;;;;;5002123;28;20594;-79
2021/08/28 06:27:13;;;;;;;6.47;3.87;;;13.20;99.90;;;;;;5000783;28;20175;-78
2021/08/28 06:29:39;;;;;;;6.17;3.90;;;13.30;99.90;;;;;;5000438;28;20246;-78
2021/08/28 06:32:05;;;;;;;5.00;3.60;;;13.30;99.90;;;;;;5000251;28;20196;-79
2021/08/28 06:34:31;;;;;;;4.03;3.63;;;13.30;99.90;;;;;;5001972;28;20168;-79
2021/08/28 06:36:56;;;;;;;4.00;3.60;;;13.40;99.90;;;;;;5002558;28;20174;-79
2021/08/28 06:39:22;;;;;;;3.27;3.07;;;13.50;99.90;;;;;;5000186;28;20651;-78
2021/08/28 06:44:24;;;;;;;4.70;3.43;;;13.60;99.90;;;;;;4999184;28;20218;-78
2021/08/28 06:46:50;;;;;;;6.77;4.27;;;13.70;99.90;;;;;;4981922;28;20168;-80
2021/08/28 06:49:15;;;;;;;3.63;3.23;;;13.70;99.90;;;;;;5004872;28;20172;-80
2021/08/28 06:51:41;;;;;;;3.50;3.20;;;13.70;99.90;;;;;;5003248;28;20171;-80
2021/08/28 06:54:07;;;;;;;3.90;3.20;;;13.60;99.90;;;;;;5003911;28;20203;-80
2021/08/28 06:56:35;;;;;;;3.53;3.27;;;13.50;99.90;;;;;;5004111;28;20164;-77
2021/08/28 06:59:01;;;;;;;4.10;3.70;;;13.50;99.90;;;;;;4999245;28;20175;-79
2021/08/28 07:01:27;;;;;;;3.70;3.40;;;13.60;99.90;;;;;;5004541;28;20164;-80
2021/08/28 07:03:52;;;;;;;4.67;3.80;;;13.70;99.90;;;;;;5003260;28;20206;-78
2021/08/28 07:06:24;;;;;;;4.40;3.77;;;13.70;99.90;;;;;;4998037;28;20247;-75
2021/08/28 07:08:49;;;;;;;7.13;4.30;;;13.70;99.90;;;;;;4998106;28;20664;-78
2021/08/28 07:11:15;;;;;;;5.67;4.50;;;13.80;99.90;;;;;;4999734;28;20168;-78
2021/08/28 07:13:40;;;;;;;4.80;4.30;;;13.90;99.90;;;;;;5003026;28;20196;-79
2021/08/28 07:16:06;;;;;;;6.20;4.60;;;14.00;99.90;;;;;;5000899;28;20176;-79
2021/08/28 07:18:32;;;;;;;5.73;4.23;;;14.10;99.90;;;;;;5002032;28;20172;-79
2021/08/28 07:20:57;;;;;;;3.97;3.57;;;14.10;99.90;;;;;;5002897;28;20175;-78
2021/08/28 07:23:23;;;;;;;3.87;3.27;;;14.20;99.90;;;;;;5003766;28;20287;-79
2021/08/28 07:25:49;;;;;;;3.50;3.20;;;14.20;99.90;;;;;;5002511;28;20234;-79
2021/08/28 07:28:14;;;;;;;5.07;3.70;;;14.20;99.90;;;;;;5004003;28;20639;-79
2021/08/28 07:30:40;;;;;;;3.70;3.30;;;14.40;99.90;;;;;;5004048;28;20170;-79
2021/08/28 07:33:06;;;;;;;4.50;3.40;;;14.40;99.90;;;;;;5003940;28;20187;-79
2021/08/28 07:35:32;;;;;;;3.70;3.20;;;14.50;99.90;;;;;;5004482;28;20505;-78
2021/08/28 07:37:58;;;;;;;4.77;3.80;;;14.50;99.90;;;;;;5003502;28;20635;-79
2021/08/28 07:40:24;;;;;;;3.97;3.13;;;14.60;99.90;;;;;;5005002;28;20168;-80
2021/08/28 07:42:54;;;;;;;3.13;2.37;;;14.60;99.90;;;;;;5005012;28;20559;-79
2021/08/28 07:45:21;;;;;;;3.93;3.33;;;14.70;99.90;;;;;;5003627;28;20550;-78
2021/08/28 07:47:47;;;;;;;3.20;2.90;;;14.60;99.90;;;;;;5005031;28;20175;-79
2021/08/28 07:50:13;;;;;;;2.77;2.57;;;14.60;99.90;;;;;;5003483;28;20172;-78
2021/08/28 07:52:42;;;;;;;2.97;2.70;;;14.50;99.90;;;;;;5005390;28;20589;-80
2021/08/28 07:55:10;;;;;;;3.20;2.90;;;14.60;99.90;;;;;;5003860;28;20176;-79
2021/08/28 07:57:36;;;;;;;3.37;3.00;;;14.60;99.90;;;;;;5003738;28;20172;-80
2021/08/28 08:00:07;;;;;;;5.07;3.40;;;14.60;99.90;;;;;;5004172;28;20168;-79
2021/08/28 08:02:33;;;;;;;5.03;3.13;;;14.60;99.90;;;;;;5002904;28;20199;-79
2021/08/28 08:04:58;;;;;;;3.03;2.83;;;14.70;99.90;;;;;;5003144;28;20241;-79
2021/08/28 08:07:24;;;;;;;3.50;3.23;;;14.70;99.90;;;;;;5004078;28;20168;-80
2021/08/28 08:09:50;;;;;;;3.40;3.10;;;14.70;99.90;;;;;;5004949;28;20217;-79
2021/08/28 08:12:15;;;;;;;4.67;3.00;;;14.90;99.90;;;;;;5003894;28;20181;-80
2021/08/28 08:14:41;;;;;;;3.37;2.93;;;15.00;99.90;;;;;;5005369;28;20537;-79
2021/08/28 08:17:07;;;;;;;3.87;2.87;;;15.20;99.90;;;;;;5002962;28;20180;-79
2021/08/28 08:19:33;;;;;;;2.40;2.20;;;15.30;99.90;;;;;;5004232;28;20643;-79
2021/08/28 08:21:58;;;;;;;2.77;2.53;;;15.30;99.90;;;;;;5005026;28;20206;-79
2021/08/28 08:24:24;;;;;;;3.13;2.83;;;15.40;99.90;;;;;;5003507;28;20200;-79
2021/08/28 08:26:50;;;;;;;2.73;2.50;;;15.40;99.90;;;;;;5003883;28;20164;-79
2021/08/28 08:29:15;;;;;;;2.97;2.53;;;15.50;99.90;;;;;;5003150;28;20215;-80
2021/08/28 08:31:41;;;;;;;2.63;2.43;;;15.50;99.90;;;;;;5004286;28;20203;-79
2021/08/28 08:34:07;;;;;;;2.87;2.40;;;15.60;99.90;;;;;;5002923;28;20298;-79
2021/08/28 08:36:33;;;;;;;2.97;2.70;;;15.60;99.90;;;;;;5003619;28;20180;-80
2021/08/28 08:38:59;;;;;;;3.33;2.93;;;15.70;99.90;;;;;;5001077;28;20181;-80
2021/08/28 08:41:25;;;;;;;2.93;2.40;;;15.70;99.90;;;;;;5004351;28;20534;-80
2021/08/28 08:43:54;;;;;;;1.57;1.43;;;15.60;99.90;;;;;;5003498;28;20211;-79
2021/08/28 08:46:24;;;;;;;2.33;1.50;;;15.60;99.90;;;;;;5003850;28;20267;-79
2021/08/28 08:48:50;;;;;;;1.93;1.20;;;15.60;99.90;;;;;;5004015;28;20177;-79
2021/08/28 08:51:20;;;;;;;1.57;1.00;;;15.50;99.90;;;;;;5003674;28;20335;-79
2021/08/28 08:53:47;;;;;;;1.47;1.13;;;15.60;99.90;;;;;;5002565;28;20200;-79
2021/08/28 08:56:13;;;;;;;1.20;0.90;;;15.60;99.90;;;;;;5003308;28;20259;-79
2021/08/28 08:58:39;;;;;;;1.47;0.93;;;15.70;99.90;;;;;;5003276;28;20180;-80
2021/08/28 09:01:06;;;;;;;1.37;1.00;;;15.90;99.90;;;;;;5003697;28;20179;-80
2021/08/28 09:03:33;;;;;;;1.30;1.20;;;16.00;99.90;;;;;;5001648;28;20576;-79
2021/08/28 09:05:59;;;;;;;1.57;1.10;;;16.10;99.90;;;;;;5002035;28;20179;-80
2021/08/28 09:08:25;;;;;;;1.37;1.20;;;16.10;99.90;;;;;;5002145;28;20181;-79
2021/08/28 09:10:51;;;;;;;1.17;1.00;;;16.20;99.90;;;;;;5003364;28;20161;-79
2021/08/28 09:13:18;;;;;;;1.27;1.10;;;16.20;99.90;;;;;;5002803;28;20214;-79
2021/08/28 09:15:46;;;;;;;1.47;1.10;;;16.10;99.90;;;;;;5001329;28;20182;-79
2021/08/28 09:18:12;;;;;;;0.97;0.97;;;16.10;99.90;;;;;;5002643;28;20244;-79
2021/08/28 09:20:38;;;;;;;2.13;0.90;;;16.10;99.90;;;;;;5001251;28;20659;-79
2021/08/28 09:23:11;;;;;;;1.67;1.30;;;16.20;99.90;;;;;;5002343;28;20228;-79
2021/08/28 09:25:38;;;;;;;1.17;1.00;;;16.20;99.90;;;;;;5003390;28;20158;-79
2021/08/28 09:28:05;;;;;;;1.13;1.00;;;16.20;99.90;;;;;;5002662;28;20609;-79
2021/08/28 09:30:38;;;;;;;2.60;1.40;;;16.30;99.90;;;;;;5003338;28;20172;-79
2021/08/28 09:33:12;;;;;;;1.50;1.10;;;16.40;99.90;;;;;;5001275;28;20221;-79
2021/08/28 09:35:45;;;;;;;1.13;1.00;;;16.60;99.90;;;;;;5003278;28;20285;-80
2021/08/28 09:38:14;;;;;;;1.87;1.03;;;16.60;99.90;;;;;;5003817;28;20195;-79
2021/08/28 09:40:59;;;;;;;1.33;1.20;;;16.60;99.90;;;;;;5002434;28;20210;-79
2021/08/28 09:43:26;;;;;;;3.13;1.00;;;16.60;99.90;;;;;;5003583;28;20281;-79
2021/08/28 09:45:54;;;;;;;1.60;1.30;;;16.60;99.90;;;;;;5001625;28;20641;-79
2021/08/28 09:48:26;;;;;;;1.97;1.00;;;16.60;99.90;;;;;;5001551;28;20180;-79
2021/08/28 09:50:54;;;;;;;1.57;1.30;;;16.50;99.90;;;;;;5002716;28;20160;-79
2021/08/28 09:53:22;;;;;;;1.93;1.40;;;16.50;99.90;;;;;;5002566;28;20212;-79
2021/08/28 09:56:03;;;;;;;2.20;1.20;;;16.40;99.90;;;;;;5004071;28;20711;-80
2021/08/28 09:58:32;;;;;;;1.90;1.20;;;16.50;99.90;;;;;;5002060;28;20169;-80
2021/08/28 10:01:02;;;;;;;2.00;1.20;;;16.50;99.90;;;;;;5003087;28;20203;-79
2021/08/28 10:03:29;;;;;;;3.53;1.60;;;16.60;99.90;;;;;;5001372;28;20207;-79
2021/08/28 10:05:56;;;;;;;2.30;2.03;;;16.60;99.90;;;;;;5002962;28;20176;-79
2021/08/28 10:08:22;;;;;;;0.70;0.63;;;16.60;99.90;;;;;;5002692;28;20175;-79
2021/08/28 10:10:49;;;;;;;1.03;0.80;;;16.70;99.90;;;;;;5000236;28;20265;-81
2021/08/28 10:13:20;;;;;;;1.43;0.90;;;16.70;99.90;;;;;;4999407;28;20193;-81
2021/08/28 10:15:46;;;;;;;1.30;0.90;;;16.80;99.90;;;;;;4997828;28;20166;-81
2021/08/28 10:18:13;;;;;;;1.00;1.00;;;16.90;99.90;;;;;;4999842;28;20182;-82
2021/08/28 10:20:40;;;;;;;1.20;1.00;;;17.00;99.90;;;;;;4998094;28;20194;-82
2021/08/28 10:23:08;;;;;;;1.20;0.97;;;17.10;99.90;;;;;;5013932;28;20218;-81
2021/08/28 10:25:39;;;;;;;0.97;0.80;;;17.10;99.90;;;;;;4997953;28;20192;-82
2021/08/28 10:28:09;;;;;;;1.40;1.00;;;17.10;99.90;;;;;;4998765;28;20172;-82
2021/08/28 10:30:35;;;;;;;1.07;0.60;;;17.10;99.90;;;;;;4998219;28;20213;-81
2021/08/28 10:33:02;;;;;;;0.57;0.50;;;16.90;99.90;;;;;;4997665;28;20198;-81
2021/08/28 10:35:28;;;;;;;2.47;0.97;;;16.60;99.90;;;;;;4999886;28;20175;-80
2021/08/28 10:37:53;;;;;;;1.83;1.13;;;16.50;99.90;;;;;;5000366;28;20777;-83
2021/08/28 10:40:29;;;;;;;2.13;1.10;;;16.20;99.90;;;;;;4999702;28;20178;-84
2021/08/28 10:42:58;;;;;;;3.57;1.47;;;15.90;99.90;;;;;;4996360;28;20234;-83
2021/08/28 10:45:33;;;;;;;6.53;1.87;;;15.80;99.90;;;;;;4999897;28;20188;-83
2021/08/28 10:48:01;;;;;;;2.93;1.50;;;15.70;99.90;;;;;;5000338;28;20171;-82
2021/08/28 10:50:33;;;;;;;2.57;1.40;;;15.50;99.90;;;;;;4998991;28;20588;-83
2021/08/28 10:53:01;;;;;;;3.47;1.40;;;15.50;99.90;;;;;;5002950;28;20355;-83
2021/08/28 10:55:36;;;;;;;1.57;1.20;;;15.50;99.90;;;;;;5001864;28;20184;-82
2021/08/28 10:58:15;;;;;;;1.47;1.30;;;15.50;99.90;;;;;;4999354;28;20175;-83
2021/08/28 11:00:46;;;;;;;2.20;1.83;;;15.40;99.90;;;;;;5001433;28;20180;-82
2021/08/28 11:03:39;;;;;;;2.23;1.40;;;15.30;99.90;;;;;;5001435;28;20697;-82
2021/08/28 11:06:13;;;;;;;1.20;1.03;;;15.40;99.90;;;;;;5002250;28;20199;-82
2021/08/28 11:08:48;;;;;;;2.57;1.10;;;15.50;99.90;;;;;;5004279;28;20674;-81
2021/08/28 11:11:23;;;;;;;3.10;1.50;;;15.60;99.90;;;;;;5003337;28;20250;-81
2021/08/28 11:14:09;;;;;;;1.30;1.00;;;15.70;99.90;;;;;;5002602;28;20188;-82
2021/08/28 11:16:50;;;;;;;1.63;1.10;;;15.80;99.90;;;;;;5003562;28;20755;-82
2021/08/28 11:19:25;;;;;;;0.80;0.77;;;15.90;99.90;;;;;;5003101;28;20195;-81
2021/08/28 11:21:52;;;;;;;2.30;1.30;;;16.10;99.90;;;;;;5001631;28;20182;-81
2021/08/28 11:24:20;;;;;;;1.30;1.10;;;16.30;99.90;;;;;;5003078;28;20283;-82
2021/08/28 11:26:51;;;;;;;1.20;1.00;;;16.30;99.90;;;;;;5001545;28;20168;-82
2021/08/28 11:29:20;;;;;;;1.07;0.93;;;16.20;99.90;;;;;;5000879;28;20181;-82
2021/08/28 11:32:05;;;;;;;1.33;1.10;;;16.10;99.90;;;;;;5003180;28;20172;-82
2021/08/28 11:34:30;;;;;;;2.03;1.30;;;16.00;99.90;;;;;;5001036;28;20177;-81
2021/08/28 11:37:28;;;;;;;1.87;1.63;;;16.00;99.90;;;;;;5002761;28;20597;-82
2021/08/28 11:39:57;;;;;;;2.43;1.70;;;15.90;99.90;;;;;;4999700;28;20201;-82
2021/08/28 11:42:24;;;;;;;5.47;1.60;;;15.70;99.90;;;;;;5002444;28;20289;-82
2021/08/28 11:44:51;;;;;;;1.80;1.37;;;15.50;99.90;;;;;;5001969;28;20255;-82
2021/08/28 11:47:18;;;;;;;2.57;2.00;;;15.30;99.90;;;;;;5001915;28;20171;-82
2021/08/28 11:49:44;;;;;;;2.87;2.37;;;15.20;99.90;;;;;;5003732;28;20175;-82
2021/08/28 11:52:10;;;;;;;2.17;1.90;;;15.10;99.90;;;;;;5006464;28;20172;-82
2021/08/28 11:54:36;;;;;;;2.83;1.73;;;14.90;99.90;;;;;;5005523;28;20175;-82
2021/08/28 11:57:02;;;;;;;2.30;1.60;;;14.90;99.90;;;;;;5002067;28;20172;-82
2021/08/28 11:59:35;;;;;;;2.40;1.17;;;14.80;99.90;;;;;;5000973;28;20199;-82
2021/08/28 12:02:01;;;;;;;2.03;1.30;;;14.80;99.90;;;;;;5002140;28;20176;-82
2021/08/28 12:04:27;;;;;;;1.70;1.60;;;14.70;99.90;;;;;;5000301;28;20199;-82
2021/08/28 12:06:54;;;;;;;2.47;1.20;;;14.80;99.90;;;;;;5002369;28;20243;-82
2021/08/28 12:09:24;;;;;;;1.40;1.30;;;14.80;99.90;;;;;;5000101;28;20192;-82
2021/08/28 12:11:51;;;;;;;1.67;1.57;;;14.80;99.90;;;;;;5002131;28;20675;-82
2021/08/28 12:14:19;;;;;;;1.93;1.67;;;14.80;99.90;;;;;;5001218;28;20199;-81
2021/08/28 12:16:45;;;;;;;1.37;1.10;;;14.90;99.90;;;;;;5001645;28;20182;-82
2021/08/28 12:19:21;;;;;;;1.57;1.47;;;15.00;99.90;;;;;;5002094;28;20171;-81
2021/08/28 12:21:59;;;;;;;1.30;1.20;;;15.00;99.90;;;;;;5000761;28;20547;-82
2021/08/28 12:24:36;;;;;;;1.80;1.70;;;15.00;99.90;;;;;;5000446;28;20546;-82
2021/08/28 12:27:08;;;;;;;2.13;1.80;;;15.00;99.90;;;;;;4999939;28;20627;-82
2021/08/28 12:29:39;;;;;;;2.63;1.50;;;15.10;99.90;;;;;;5001704;28;20156;-82
2021/08/28 12:32:10;;;;;;;2.50;1.30;;;15.10;99.90;;;;;;5001637;28;20191;-82
2021/08/28 12:34:39;;;;;;;1.50;1.07;;;15.20;99.90;;;;;;4998675;28;20248;-82
2021/08/28 12:37:07;;;;;;;2.07;1.10;;;15.10;99.90;;;;;;5001305;28;20173;-82
2021/08/28 12:39:34;;;;;;;1.47;1.37;;;15.10;99.90;;;;;;5001065;28;20195;-82
2021/08/28 12:42:00;;;;;;;5.00;1.60;;;15.00;99.90;;;;;;5001123;28;20173;-81
2021/08/28 12:44:30;;;;;;;2.00;1.80;;;14.90;99.90;;;;;;5021300;23;20604;-80
2021/08/28 12:47:01;;;;;;;2.40;2.13;;;14.90;99.90;;;;;;5003169;28;20164;-80
2021/08/28 12:49:29;;;;;;;2.60;1.87;;;15.00;99.90;;;;;;5002361;28;20163;-80
2021/08/28 12:52:05;;;;;;;2.70;1.70;;;15.00;99.90;;;;;;5000839;28;20179;-80
2021/08/28 12:54:37;;;;;;;2.20;1.70;;;15.00;99.90;;;;;;5001193;28;20195;-80